Time;durP1;ratioP1;P1;durP2;ratioP2;P2;SDS_P1;SDS_P2;PMS_P1;PMS_P2;Temp;Humidity;BMP_temperature;BMP_pressure;BME280_temperature;BME280_humidity;BME280_pressure;Samples;Min_cycle;Max_cycle;Signal;HPM_P1;HPM_P2
2023/10/29 00:00:22;;;;;;;;;;;;;;;12.59;68.29;99401.13;4427381;32;34173;-79
2023/10/29 00:02:50;;;;;;;;;;;;;;;12.54;68.51;99407.94;4436674;32;33794;-77
2023/10/29 00:05:18;;;;;;;;;;;;;;;12.39;69.21;99418.72;4437113;32;33496;-76
2023/10/29 00:07:46;;;;;;;;;;;;;;;12.41;69.22;99418.78;4434040;32;33910;-78
2023/10/29 00:10:19;;;;;;;;;;;;;;;12.39;69.35;99424.78;4434361;32;34196;-78
2023/10/29 00:12:46;;;;;;;;;;;;;;;12.29;69.64;99427.94;4436687;32;36488;-79
2023/10/29 00:15:13;;;;;;;;;;;;;;;12.25;69.91;99426.06;4433094;32;34210;-79
2023/10/29 00:17:40;;;;;;;;;;;;;;;12.29;70.28;99427.06;4428726;32;33523;-79
2023/10/29 00:20:09;;;;;;;;;;;;;;;12.20;70.40;99427.63;4424362;32;34207;-76
2023/10/29 00:22:36;;;;;;;;;;;;;;;12.06;70.50;99423.72;4424525;32;34286;-77
2023/10/29 00:25:03;;;;;;;;;;;;;;;12.11;70.74;99417.84;4427229;32;33701;-77
2023/10/29 00:27:31;;;;;;;;;;;;;;;11.94;71.19;99417.28;4430973;32;34082;-76
2023/10/29 00:29:58;;;;;;;;;;;;;;;11.94;71.68;99414.69;4429686;32;34800;-78
2023/10/29 00:32:26;;;;;;;;;;;;;;;12.05;71.38;99408.97;4435742;32;33594;-78
2023/10/29 00:34:53;;;;;;;;;;;;;;;12.06;71.54;99413.34;4432273;32;33949;-78
2023/10/29 00:37:20;;;;;;;;;;;;;;;12.15;71.33;99411.91;4431614;32;34707;-78
2023/10/29 00:39:47;;;;;;;;;;;;;;;12.24;70.95;99413.03;4427511;32;35157;-78
2023/10/29 00:42:15;;;;;;;;;;;;;;;12.24;70.80;99407.84;4424473;32;33701;-78
2023/10/29 00:44:42;;;;;;;;;;;;;;;12.21;70.91;99406.03;4425994;32;33328;-79
2023/10/29 00:47:09;;;;;;;;;;;;;;;12.35;70.26;99406.47;4431871;32;34738;-79
2023/10/29 00:49:37;;;;;;;;;;;;;;;12.34;69.62;99404.69;4432618;32;33944;-79
2023/10/29 00:52:05;;;;;;;;;;;;;;;12.38;68.98;99407.44;4412001;32;34152;-76
2023/10/29 00:54:32;;;;;;;;;;;;;;;12.23;69.76;99408.66;4420163;32;34070;-79
2023/10/29 00:56:59;;;;;;;;;;;;;;;12.27;69.52;99403.62;4433019;32;34077;-79
2023/10/29 00:59:27;;;;;;;;;;;;;;;12.14;69.36;99402.34;4430958;32;34207;-78
2023/10/29 01:01:54;;;;;;;;;;;;;;;12.10;69.23;99395.31;4426882;32;35108;-77
2023/10/29 01:04:22;;;;;;;;;;;;;;;12.13;69.33;99395.41;4425156;32;33771;-78
2023/10/29 01:06:49;;;;;;;;;;;;;;;12.11;69.43;99385.78;4427256;32;33848;-77
2023/10/29 01:09:17;;;;;;;;;;;;;;;12.30;68.73;99388.12;4436755;32;34607;-79
2023/10/29 01:11:44;;;;;;;;;;;;;;;12.27;67.91;99389.78;4432645;32;34284;-78
2023/10/29 01:14:11;;;;;;;;;;;;;;;12.20;67.90;99388.69;4425433;32;33483;-79
2023/10/29 01:16:39;;;;;;;;;;;;;;;12.14;68.21;99396.28;4427493;32;33915;-78
2023/10/29 01:19:06;;;;;;;;;;;;;;;12.10;68.22;99389.22;4431515;32;34015;-76
2023/10/29 01:21:33;;;;;;;;;;;;;;;11.99;68.61;99396.66;4431403;32;34126;-79
2023/10/29 01:24:02;;;;;;;;;;;;;;;11.99;68.96;99392.38;4412325;32;33362;-77
2023/10/29 01:26:29;;;;;;;;;;;;;;;12.01;68.92;99397.59;4427208;32;34715;-77
2023/10/29 01:28:57;;;;;;;;;;;;;;;11.87;69.47;99404.91;4432463;32;34114;-79
2023/10/29 01:31:24;;;;;;;;;;;;;;;11.94;69.46;99399.13;4416406;32;33860;-77
2023/10/29 01:33:51;;;;;;;;;;;;;;;12.00;69.05;99404.50;4427010;32;34148;-77
2023/10/29 01:36:19;;;;;;;;;;;;;;;11.93;69.39;99412.91;4426720;32;34002;-79
2023/10/29 01:38:46;;;;;;;;;;;;;;;11.90;69.33;99412.84;4428019;32;34357;-78
2023/10/29 01:41:13;;;;;;;;;;;;;;;11.95;69.24;99421.63;4432857;32;34227;-77
2023/10/29 01:43:41;;;;;;;;;;;;;;;11.88;69.28;99419.66;4415542;32;33157;-79
2023/10/29 01:46:08;;;;;;;;;;;;;;;11.83;69.29;99415.13;4426430;32;33991;-77
2023/10/29 01:48:35;;;;;;;;;;;;;;;11.99;68.75;99410.53;4434588;32;33627;-77
2023/10/29 01:51:04;;;;;;;;;;;;;;;11.94;68.90;99414.69;4428307;32;34230;-79
2023/10/29 01:53:31;;;;;;;;;;;;;;;11.94;68.90;99414.69;4428651;32;33003;-77
2023/10/29 01:55:58;;;;;;;;;;;;;;;11.98;68.69;99410.50;4426033;32;34655;-77
2023/10/29 01:58:25;;;;;;;;;;;;;;;11.90;69.23;99412.84;4434839;32;33451;-78
2023/10/29 02:00:55;;;;;;;;;;;;;;;11.94;69.24;99425.06;4427991;32;34007;-78
2023/10/29 02:03:23;;;;;;;;;;;;;;;11.98;69.19;99426.06;4429317;32;32899;-77
2023/10/29 02:05:50;;;;;;;;;;;;;;;11.89;69.12;99436.09;4426204;32;33885;-77
2023/10/29 02:08:18;;;;;;;;;;;;;;;12.02;68.80;99432.25;4433873;32;34799;-79
2023/10/29 02:10:46;;;;;;;;;;;;;;;12.05;68.49;99419.34;4426246;32;34202;-80
2023/10/29 02:13:14;;;;;;;;;;;;;;;11.96;69.03;99427.72;4433564;32;33973;-79
2023/10/29 02:15:42;;;;;;;;;;;;;;;11.74;69.36;99436.44;4432626;32;34787;-78
2023/10/29 02:18:11;;;;;;;;;;;;;;;11.91;68.70;99439.66;4425889;32;34054;-76
2023/10/29 02:20:39;;;;;;;;;;;;;;;11.83;68.39;99435.91;4434960;32;34548;-76
2023/10/29 02:23:06;;;;;;;;;;;;;;;11.80;68.42;99431.47;4431468;32;33276;-76
2023/10/29 02:25:34;;;;;;;;;;;;;;;11.71;68.78;99431.19;4429492;32;33931;-78
2023/10/29 02:28:03;;;;;;;;;;;;;;;11.61;69.48;99430.84;4423919;32;33995;-76
2023/10/29 02:30:31;;;;;;;;;;;;;;;11.81;68.74;99438.44;4420536;32;33286;-77
2023/10/29 02:32:58;;;;;;;;;;;;;;;11.70;69.33;99435.47;4427300;32;33765;-76
2023/10/29 02:35:27;;;;;;;;;;;;;;;11.70;69.78;99439.78;4432600;32;35480;-78
2023/10/29 02:37:55;;;;;;;;;;;;;;;11.64;70.07;99449.94;4430033;32;33678;-80
2023/10/29 02:40:22;;;;;;;;;;;;;;;11.65;70.29;99443.91;4433493;32;34797;-79
2023/10/29 02:42:49;;;;;;;;;;;;;;;11.75;70.25;99438.22;4425875;32;34190;-78
2023/10/29 02:45:17;;;;;;;;;;;;;;;11.88;70.03;99444.69;4431981;32;34642;-77
2023/10/29 02:47:44;;;;;;;;;;;;;;;11.89;70.00;99438.69;4436779;32;33951;-78
2023/10/29 02:50:12;;;;;;;;;;;;;;;11.87;69.33;99430.84;4436083;32;33840;-77
2023/10/29 02:52:41;;;;;;;;;;;;;;;11.74;69.20;99433.84;4412438;32;33120;-78
2023/10/29 02:55:08;;;;;;;;;;;;;;;11.61;69.73;99435.16;4415800;32;34838;-76
2023/10/29 02:57:35;;;;;;;;;;;;;;;11.47;70.27;99432.06;4433011;32;33890;-77
2023/10/29 03:00:04;;;;;;;;;;;;;;;11.63;69.91;99428.31;4426754;32;34211;-76
2023/10/29 03:02:31;;;;;;;;;;;;;;;11.50;70.04;99427.00;4434760;32;33274;-78
2023/10/29 03:04:58;;;;;;;;;;;;;;;11.54;70.31;99434.06;4426978;32;34803;-78
2023/10/29 03:07:26;;;;;;;;;;;;;;;11.56;70.33;99437.59;4432106;32;34960;-78
2023/10/29 03:09:53;;;;;;;;;;;;;;;11.53;70.30;99447.88;4410454;32;802626;-77
2023/10/29 03:12:20;;;;;;;;;;;;;;;11.56;70.30;99447.97;4435368;32;32831;-78
2023/10/29 03:14:48;;;;;;;;;;;;;;;11.59;70.37;99442.91;4432012;32;34246;-76
2023/10/29 03:17:16;;;;;;;;;;;;;;;11.58;70.50;99440.25;4430752;32;34572;-78
2023/10/29 03:19:44;;;;;;;;;;;;;;;11.50;70.96;99442.56;4427782;32;34897;-78
2023/10/29 03:22:11;;;;;;;;;;;;;;;11.64;70.95;99445.63;4424601;32;33249;-77
2023/10/29 03:24:40;;;;;;;;;;;;;;;11.60;71.10;99444.63;4435305;32;34110;-76
2023/10/29 03:27:08;;;;;;;;;;;;;;;11.70;70.98;99450.16;4416450;32;33612;-77
2023/10/29 03:29:35;;;;;;;;;;;;;;;11.76;70.76;99445.16;4429027;32;34187;-78
2023/10/29 03:32:03;;;;;;;;;;;;;;;11.66;71.24;99446.56;4424010;32;33467;-76
2023/10/29 03:34:31;;;;;;;;;;;;;;;11.76;71.26;99450.34;4436341;32;33901;-80
2023/10/29 03:36:58;;;;;;;;;;;;;;;11.82;71.46;99448.00;4417401;32;33488;-79
2023/10/29 03:39:26;;;;;;;;;;;;;;;11.93;71.26;99444.06;4428639;32;34241;-80
2023/10/29 03:41:53;;;;;;;;;;;;;;;11.96;71.48;99438.13;4429535;32;33964;-79
2023/10/29 03:44:21;;;;;;;;;;;;;;;11.92;71.81;99442.31;4426054;32;33366;-79
2023/10/29 03:46:51;;;;;;;;;;;;;;;11.93;71.97;99450.97;4417981;32;33477;-77
2023/10/29 03:49:19;;;;;;;;;;;;;;;12.03;71.98;99444.37;4431252;32;34096;-78
2023/10/29 03:51:46;;;;;;;;;;;;;;;12.00;71.99;99446.03;4432805;32;33256;-78
2023/10/29 03:54:14;;;;;;;;;;;;;;;12.16;71.48;99438.75;4434408;32;34962;-76
2023/10/29 03:56:41;;;;;;;;;;;;;;;12.23;71.20;99438.13;4427921;32;33864;-76
2023/10/29 03:59:08;;;;;;;;;;;;;;;12.11;71.45;99443.81;4432276;32;34006;-79
2023/10/29 04:01:36;;;;;;;;;;;;;;;12.22;70.92;99430.28;4424611;32;34124;-78
2023/10/29 04:04:03;;;;;;;;;;;;;;;12.12;71.21;99429.09;4430254;32;34852;-78
2023/10/29 04:06:31;;;;;;;;;;;;;;;12.22;70.39;99436.34;4429428;32;34443;-77
2023/10/29 04:08:58;;;;;;;;;;;;;;;12.26;69.61;99432.13;4428705;32;34226;-79
2023/10/29 04:11:26;;;;;;;;;;;;;;;12.15;69.82;99429.22;4429873;32;33133;-79
2023/10/29 04:13:53;;;;;;;;;;;;;;;12.14;69.82;99427.44;4423598;32;34943;-79
2023/10/29 04:16:21;;;;;;;;;;;;;;;12.08;69.99;99432.44;4429645;32;34218;-76
2023/10/29 04:18:48;;;;;;;;;;;;;;;12.03;70.30;99434.88;4434186;32;34423;-77
2023/10/29 04:21:15;;;;;;;;;;;;;;;12.03;70.38;99436.59;4430245;32;32936;-77
2023/10/29 04:23:43;;;;;;;;;;;;;;;12.07;70.51;99435.84;4432891;32;34274;-79
2023/10/29 04:26:10;;;;;;;;;;;;;;;11.97;70.88;99438.13;4431285;32;34184;-76
2023/10/29 04:28:37;;;;;;;;;;;;;;;12.02;70.78;99443.50;4426323;32;34769;-77
2023/10/29 04:31:04;;;;;;;;;;;;;;;12.03;70.75;99444.37;4431901;32;33830;-78
2023/10/29 04:33:32;;;;;;;;;;;;;;;12.09;70.72;99439.38;4431988;32;33961;-78
2023/10/29 04:36:00;;;;;;;;;;;;;;;11.81;71.26;99443.63;4431585;32;34010;-78
2023/10/29 04:38:28;;;;;;;;;;;;;;;11.97;70.95;99439.84;4430312;32;34980;-76
2023/10/29 04:40:56;;;;;;;;;;;;;;;12.00;71.11;99438.25;4428436;32;33544;-78
2023/10/29 04:43:23;;;;;;;;;;;;;;;11.98;71.42;99434.72;4421303;32;34167;-77
2023/10/29 04:45:50;;;;;;;;;;;;;;;11.85;72.00;99440.31;4434525;32;34806;-77
2023/10/29 04:48:18;;;;;;;;;;;;;;;11.93;72.12;99440.59;4424460;32;34823;-77
2023/10/29 04:50:46;;;;;;;;;;;;;;;11.87;72.54;99437.75;4429471;32;33434;-79
2023/10/29 04:53:13;;;;;;;;;;;;;;;11.98;72.81;99442.50;4422837;32;33860;-79
2023/10/29 04:55:40;;;;;;;;;;;;;;;11.96;73.10;99444.19;4429288;32;34655;-79
2023/10/29 04:58:07;;;;;;;;;;;;;;;12.10;72.80;99446.34;4423864;32;34121;-79
2023/10/29 05:00:35;;;;;;;;;;;;;;;11.94;73.56;99444.97;4435278;32;33255;-79
2023/10/29 05:03:02;;;;;;;;;;;;;;;12.06;73.37;99444.50;4428152;32;33894;-78
2023/10/29 05:05:31;;;;;;;;;;;;;;;11.95;73.83;99445.00;4434808;32;34073;-79
2023/10/29 05:07:58;;;;;;;;;;;;;;;12.06;73.50;99439.28;4426064;32;34003;-79
2023/10/29 05:10:28;;;;;;;;;;;;;;;12.04;73.86;99447.03;4433057;32;34012;-79
2023/10/29 05:12:56;;;;;;;;;;;;;;;12.18;73.60;99435.38;4421816;32;33629;-78
2023/10/29 05:15:23;;;;;;;;;;;;;;;12.24;73.58;99439.88;4431510;32;34978;-79
2023/10/29 05:17:51;;;;;;;;;;;;;;;12.25;73.55;99436.47;4429998;32;33911;-78
2023/10/29 05:20:18;;;;;;;;;;;;;;;12.29;73.27;99433.12;4431723;32;33291;-79
2023/10/29 05:22:46;;;;;;;;;;;;;;;12.35;73.31;99433.31;4433897;32;34858;-76
2023/10/29 05:25:13;;;;;;;;;;;;;;;12.27;73.58;99447.78;4430289;32;33906;-76
2023/10/29 05:27:48;;;;;;;;;;;;;;;12.28;73.91;99451.25;4428470;32;33527;-79
2023/10/29 05:30:16;;;;;;;;;;;;;;;12.29;74.22;99453.91;4430557;32;33992;-76
2023/10/29 05:32:43;;;;;;;;;;;;;;;12.36;73.90;99448.09;4430488;32;34134;-77
2023/10/29 05:35:11;;;;;;;;;;;;;;;12.48;73.28;99449.31;4428136;32;33896;-79
2023/10/29 05:37:38;;;;;;;;;;;;;;;12.42;73.75;99454.28;4428642;32;34732;-79
2023/10/29 05:40:07;;;;;;;;;;;;;;;12.35;73.98;99459.28;4412670;32;33070;-76
2023/10/29 05:42:35;;;;;;;;;;;;;;;12.26;74.41;99463.31;4425578;32;35567;-77
2023/10/29 05:45:02;;;;;;;;;;;;;;;12.37;74.30;99465.41;4432301;32;33941;-78
2023/10/29 05:47:30;;;;;;;;;;;;;;;12.38;74.66;99468.88;4424874;32;34912;-78
2023/10/29 05:49:57;;;;;;;;;;;;;;;12.56;74.20;99466.00;4423510;32;33592;-76
2023/10/29 05:52:25;;;;;;;;;;;;;;;12.52;74.36;99467.63;4404856;32;34149;-76
2023/10/29 05:54:53;;;;;;;;;;;;;;;12.61;74.20;99477.41;4423993;32;34067;-76
2023/10/29 05:57:20;;;;;;;;;;;;;;;12.57;74.46;99472.94;4411509;32;33428;-78
2023/10/29 05:59:47;;;;;;;;;;;;;;;12.64;74.28;99474.91;4428758;32;33692;-79
2023/10/29 06:02:14;;;;;;;;;;;;;;;12.63;74.26;99473.13;4425444;32;34168;-77
2023/10/29 06:04:42;;;;;;;;;;;;;;;12.74;73.74;99478.69;4425268;32;34098;-77
2023/10/29 06:07:09;;;;;;;;;;;;;;;12.72;73.73;99478.62;4423045;32;34360;-78
2023/10/29 06:09:36;;;;;;;;;;;;;;;12.71;73.88;99479.47;4431753;32;32862;-77
2023/10/29 06:12:04;;;;;;;;;;;;;;;12.68;74.30;99478.50;4425267;32;33943;-76
2023/10/29 06:14:32;;;;;;;;;;;;;;;12.58;74.82;99482.53;4430384;32;34948;-76
2023/10/29 06:16:59;;;;;;;;;;;;;;;12.68;74.67;99488.91;4418097;32;32620;-78
2023/10/29 06:19:45;;;;;;;;;;;;;;;12.67;74.86;99498.41;4426742;32;32798;-77
2023/10/29 06:22:13;;;;;;;;;;;;;;;12.74;75.02;99500.34;4424150;32;32663;-78
2023/10/29 06:24:40;;;;;;;;;;;;;;;12.80;75.09;99502.25;4434353;32;34257;-78
2023/10/29 06:27:08;;;;;;;;;;;;;;;12.78;75.25;99496.13;4426837;32;34826;-78
2023/10/29 06:29:36;;;;;;;;;;;;;;;12.92;75.36;99509.53;4433979;32;33775;-77
2023/10/29 06:32:04;;;;;;;;;;;;;;;13.08;74.55;99501.38;4430912;32;33526;-79
2023/10/29 06:34:31;;;;;;;;;;;;;;;13.01;74.88;99498.56;4431822;32;35134;-76
2023/10/29 06:36:59;;;;;;;;;;;;;;;12.98;75.34;99504.56;4434109;32;34379;-79
2023/10/29 06:39:26;;;;;;;;;;;;;;;13.04;75.43;99499.53;4431947;32;33767;-76
2023/10/29 06:41:53;;;;;;;;;;;;;;;13.01;75.82;99499.44;4426448;32;34770;-76
2023/10/29 06:44:21;;;;;;;;;;;;;;;13.05;75.90;99506.47;4410989;32;32243;-77
2023/10/29 06:46:48;;;;;;;;;;;;;;;13.02;76.30;99509.00;4433637;32;34384;-76
2023/10/29 06:49:15;;;;;;;;;;;;;;;13.26;75.72;99515.78;4423779;32;33057;-76
2023/10/29 06:51:43;;;;;;;;;;;;;;;13.27;76.06;99523.63;4430164;32;33998;-77
2023/10/29 06:54:11;;;;;;;;;;;;;;;13.13;76.24;99531.03;4422462;32;32260;-78
2023/10/29 06:56:38;;;;;;;;;;;;;;;13.27;76.00;99523.63;4429821;32;34034;-77
2023/10/29 06:59:05;;;;;;;;;;;;;;;13.36;76.04;99528.22;4429811;32;33712;-78
2023/10/29 07:01:33;;;;;;;;;;;;;;;13.49;75.68;99530.34;4429841;32;34024;-76
2023/10/29 07:04:00;;;;;;;;;;;;;;;13.48;75.99;99528.59;4438207;32;33523;-78
2023/10/29 07:06:30;;;;;;;;;;;;;;;13.51;76.26;99533.00;4410552;32;34225;-78
2023/10/29 07:08:58;;;;;;;;;;;;;;;13.60;76.38;99534.97;4428071;32;34135;-78
2023/10/29 07:11:28;;;;;;;;;;;;;;;13.74;75.95;99528.44;4429076;32;35448;-79
2023/10/29 07:13:55;;;;;;;;;;;;;;;13.66;76.07;99527.38;4430513;32;36845;-77
2023/10/29 07:16:22;;;;;;;;;;;;;;;13.80;75.75;99526.00;4428866;32;34993;-77
2023/10/29 07:18:50;;;;;;;;;;;;;;;13.87;75.84;99527.94;4426897;32;33158;-77
2023/10/29 07:21:17;;;;;;;;;;;;;;;13.87;76.17;99527.03;4427106;32;33869;-78
2023/10/29 07:23:45;;;;;;;;;;;;;;;14.10;76.02;99530.25;4436223;32;35369;-78
2023/10/29 07:26:14;;;;;;;;;;;;;;;14.01;76.22;99530.03;4418901;32;33601;-78
2023/10/29 07:28:41;;;;;;;;;;;;;;;14.22;75.85;99516.69;4431161;32;34143;-77
2023/10/29 07:31:08;;;;;;;;;;;;;;;14.20;76.06;99521.87;4425546;32;33929;-79
2023/10/29 07:33:41;;;;;;;;;;;;;;;14.28;75.74;99520.31;4414911;32;34273;-80
2023/10/29 07:36:12;;;;;;;;;;;;;;;14.43;75.42;99516.31;4399671;32;33255;-77
2023/10/29 07:38:40;;;;;;;;;;;;;;;14.45;75.75;99518.16;4431094;32;33112;-79
2023/10/29 07:41:07;;;;;;;;;;;;;;;14.46;75.80;99511.19;4428617;32;34812;-79
2023/10/29 07:43:35;;;;;;;;;;;;;;;14.64;74.97;99514.31;4426946;32;34165;-78
2023/10/29 07:46:05;;;;;;;;;;;;;;;14.43;74.73;99518.94;4429479;32;33448;-77
2023/10/29 07:48:33;;;;;;;;;;;;;;;14.29;82.04;99511.69;4429639;32;33267;-77
2023/10/29 07:51:00;;;;;;;;;;;;;;;14.61;84.35;99519.44;4429219;32;34989;-79
2023/10/29 07:53:30;;;;;;;;;;;;;;;14.74;79.76;99510.19;4427260;32;34705;-78
2023/10/29 07:56:10;;;;;;;;;;;;;;;14.84;77.89;99514.75;4427937;32;34730;-78
2023/10/29 07:58:38;;;;;;;;;;;;;;;14.97;75.64;99513.31;4430285;32;33518;-77
2023/10/29 08:01:12;;;;;;;;;;;;;;;14.91;75.83;99507.94;4434799;32;34970;-78
2023/10/29 08:03:40;;;;;;;;;;;;;;;15.01;74.75;99515.16;4418375;32;34051;-80
2023/10/29 08:06:08;;;;;;;;;;;;;;;15.09;74.38;99510.97;4428525;32;34579;-77
2023/10/29 08:08:35;;;;;;;;;;;;;;;15.14;73.56;99501.53;4428867;32;33534;-76
2023/10/29 08:11:03;;;;;;;;;;;;;;;15.16;73.47;99501.53;4432941;32;34290;-76
2023/10/29 08:13:31;;;;;;;;;;;;;;;15.08;73.49;99506.59;4431091;32;33988;-77
2023/10/29 08:15:58;;;;;;;;;;;;;;;15.19;73.07;99508.56;4429378;32;34933;-77
2023/10/29 08:18:26;;;;;;;;;;;;;;;15.17;72.57;99507.66;4426767;32;33635;-76
2023/10/29 08:20:53;;;;;;;;;;;;;;;15.21;72.87;99522.53;4429595;32;34163;-77
2023/10/29 08:23:20;;;;;;;;;;;;;;;15.20;73.09;99529.47;4427148;32;34121;-77
2023/10/29 08:25:48;;;;;;;;;;;;;;;15.24;73.11;99522.56;4428559;32;34456;-77
2023/10/29 08:28:15;;;;;;;;;;;;;;;15.32;73.07;99521.03;4429485;32;33351;-76
2023/10/29 08:30:42;;;;;;;;;;;;;;;15.30;73.56;99517.50;4432675;32;34857;-78
2023/10/29 08:33:10;;;;;;;;;;;;;;;15.47;73.35;99516.13;4428353;32;33183;-78
2023/10/29 08:35:37;;;;;;;;;;;;;;;15.31;74.40;99514.03;4415702;32;32443;-76
2023/10/29 08:38:04;;;;;;;;;;;;;;;15.43;74.51;99519.53;4431411;32;33333;-78
2023/10/29 08:40:32;;;;;;;;;;;;;;;15.56;74.35;99511.94;4429966;32;33509;-79
2023/10/29 08:42:59;;;;;;;;;;;;;;;15.73;74.08;99518.41;4415662;32;35554;-77
2023/10/29 08:45:26;;;;;;;;;;;;;;;15.82;74.46;99513.37;4429828;32;34953;-79
2023/10/29 08:48:08;;;;;;;;;;;;;;;15.90;74.63;99509.16;4430600;32;33978;-78
2023/10/29 08:50:35;;;;;;;;;;;;;;;16.02;74.60;99510.25;4425555;32;34293;-78
2023/10/29 08:53:03;;;;;;;;;;;;;;;16.14;74.67;99514.78;4433272;32;34323;-78
2023/10/29 08:55:30;;;;;;;;;;;;;;;16.24;74.01;99512.34;4415382;32;35673;-79
2023/10/29 08:57:57;;;;;;;;;;;;;;;16.43;73.49;99510.06;4432338;32;33910;-78
2023/10/29 09:00:25;;;;;;;;;;;;;;;16.54;73.28;99516.34;4428588;32;34806;-77
2023/10/29 09:03:01;;;;;;;;;;;;;;;16.76;72.40;99516.69;4428562;32;34258;-76
2023/10/29 09:05:29;;;;;;;;;;;;;;;16.96;79.42;99524.84;4428329;32;34162;-78
2023/10/29 09:07:56;;;;;;;;;;;;;;;17.21;78.76;99520.84;4432795;32;33376;-78
2023/10/29 09:10:24;;;;;;;16.65;7.57;;;;;;;17.41;75.57;99523.72;4424057;32;34152;-78
2023/10/29 09:12:51;;;;;;;;;;;;;;;17.71;73.52;99523.19;4428011;32;33753;-79
2023/10/29 09:15:19;;;;;;;;;;;;;;;18.19;67.16;99514.13;4427746;32;33573;-79
2023/10/29 09:17:46;;;;;;;;;;;;;;;18.72;64.97;99519.84;4428381;32;33220;-79
2023/10/29 09:20:13;;;;;;;;;;;;;;;18.65;63.70;99517.12;4425647;32;33797;-79
2023/10/29 09:22:41;;;;;;;;;;;;;;;18.95;60.90;99505.16;4433208;32;34366;-79
2023/10/29 09:25:09;;;;;;;;;;;;;;;18.89;61.05;99506.84;4428159;32;34189;-79
2023/10/29 09:27:36;;;;;;;;;;;;;;;19.25;61.03;99500.91;4422634;32;33342;-79
2023/10/29 09:30:03;;;;;;;;;;;;;;;19.64;60.69;99502.84;4431062;32;34753;-80
2023/10/29 09:32:34;;;;;;;;;;;;;;;19.81;59.97;99500.28;4432199;32;34183;-80
2023/10/29 09:35:04;;;;;;;;;;;;;;;20.09;58.48;99494.19;4434297;32;35754;-80
2023/10/29 09:37:34;;;;;;;;;;;;;;;20.30;58.15;99498.59;4429549;32;33225;-79
2023/10/29 09:40:02;;;;;;;;;;;;;;;20.40;56.90;99495.09;4433169;32;34216;-79
2023/10/29 09:42:31;;;;;;;;;;;;;;;20.09;56.67;99495.09;4425972;32;34732;-79
2023/10/29 09:44:58;;;;;;;;;;;;;;;20.15;57.12;99494.22;4436162;32;34178;-79
2023/10/29 09:47:26;;;;;;;;;;;;;;;20.55;57.81;99489.84;4430543;32;33028;-80
2023/10/29 09:49:54;;;;;;;;;;;;;;;20.84;56.62;99491.56;4425306;32;34894;-79
2023/10/29 09:52:28;;;;;;;7.32;2.67;;;;;;;20.86;56.55;99487.19;4430552;32;34094;-79
2023/10/29 09:54:56;;;;;;;7.10;2.37;;;;;;;20.70;57.02;99488.09;4423121;32;32996;-79
2023/10/29 09:57:24;;;;;;;7.10;2.33;;;;;;;20.47;58.21;99481.06;4415366;32;33940;-79
2023/10/29 09:59:51;;;;;;;;;;;;;;;21.26;56.74;99488.84;4432092;32;34848;-79
2023/10/29 10:02:20;;;;;;;;;;;;;;;21.51;56.52;99489.63;4425549;32;34281;-79
2023/10/29 10:04:48;;;;;;;;;;;;;;;21.88;57.79;99478.88;4428840;32;35261;-78
2023/10/29 10:07:15;;;;;;;;;;;;;;;21.92;57.99;99480.63;4413348;32;33779;-79
2023/10/29 10:09:52;;;;;;;;;;;;;;;22.05;58.28;99482.28;4430563;32;34694;-79
2023/10/29 10:12:20;;;;;;;;;;;;;;;22.18;55.49;99476.03;4427841;32;34205;-79
2023/10/29 10:14:48;;;;;;;;;;;;;;;22.45;54.59;99470.59;4430307;32;33945;-80
2023/10/29 10:17:15;;;;;;;;;;;;;;;22.95;51.74;99475.37;4413952;32;33783;-79
2023/10/29 10:19:43;;;;;;;;;;;;;;;23.00;50.90;99470.03;4425949;32;33997;-79
2023/10/29 10:22:10;;;;;;;;;;;;;;;22.79;50.33;99471.12;4423132;32;34193;-80
2023/10/29 10:24:38;;;;;;;;;;;;;;;23.28;50.21;99454.75;4424982;32;33733;-80
2023/10/29 10:27:06;;;;;;;;;;;;;;;23.44;49.68;99462.50;4421733;32;32862;-79
2023/10/29 10:29:33;;;;;;;;;;;;;;;23.43;48.83;99459.00;4422716;32;34782;-79
2023/10/29 10:32:04;;;;;;;;;;;;;;;22.85;48.63;99449.06;4432975;32;34634;-80
2023/10/29 10:34:39;;;;;;;;;;;;;;;22.60;48.01;99445.78;4426746;32;34950;-79
2023/10/29 10:37:06;;;;;;;;;;;;;;;22.45;49.07;99450.34;4423481;32;33419;-80
2023/10/29 10:39:34;;;;;;;;;;;;;;;22.54;48.34;99434.44;4422630;32;34633;-80
2023/10/29 10:42:02;;;;;;;;;;;;;;;22.92;48.42;99446.34;4435316;32;34200;-80
2023/10/29 10:44:30;;;;;;;;;;;;;;;23.01;49.02;99439.22;4425491;32;33987;-80
2023/10/29 10:46:59;;;;;;;;;;;;;;;22.94;48.72;99439.25;4427112;32;32765;-80
2023/10/29 10:49:30;;;;;;;;;;;;;;;22.88;50.21;99436.69;4420708;32;34178;-81
2023/10/29 10:52:01;;;;;;;;;;;;;;;22.39;48.73;99439.84;4425529;32;34110;-79
2023/10/29 10:54:29;;;;;;;;;;;;;;;22.53;49.10;99435.31;4423547;32;33715;-81
2023/10/29 10:56:56;;;;;;;;;;;;;;;22.53;48.53;99434.44;4432178;32;34253;-80
2023/10/29 10:59:24;;;;;;;;;;;;;;;22.46;49.66;99427.47;4414371;32;33962;-81
2023/10/29 11:01:51;;;;;;;;;;;;;;;22.50;49.31;99431.81;4409926;32;34341;-79
2023/10/29 11:04:19;;;;;;;;;;;;;;;22.76;48.48;99436.84;4407718;32;34104;-80
2023/10/29 11:06:48;;;;;;;;;;;;;;;22.76;48.01;99432.44;4426165;32;33097;-81
2023/10/29 11:09:17;;;;;;;;;;;;;;;22.05;47.82;99434.81;4428806;32;33956;-80
2023/10/29 11:11:45;;;;;;;;;;;;;;;22.15;49.94;99423.28;4433980;32;34575;-79
2023/10/29 11:14:14;;;;;;;;;;;;;;;22.30;50.01;99421.47;4412523;32;34175;-80
2023/10/29 11:16:57;;;;;;;;;;;;;;;22.32;47.84;99422.31;4435732;32;34109;-81
2023/10/29 11:19:35;;;;;;;;;;;;;;;22.27;49.36;99419.72;4418274;32;33698;-80
2023/10/29 11:22:13;;;;;;;;;;;;;;;22.37;50.50;99431.06;4426950;32;35069;-81
2023/10/29 11:24:40;;;;;;;;;;;;;;;22.61;47.94;99426.44;4427261;32;34792;-79
2023/10/29 11:27:26;;;;;;;;;;;;;;;22.73;48.54;99428.94;4432566;32;33576;-80
2023/10/29 11:30:09;;;;;;;;;;;;;;;22.92;48.09;99421.69;4435002;32;34011;-81
2023/10/29 11:32:36;;;;;;;;;;;;;;;22.96;46.93;99413.72;4423919;32;33822;-81
2023/10/29 11:35:19;;;;;;;;;;;;;;;22.84;47.47;99426.19;4423399;32;34003;-80
2023/10/29 11:37:48;;;;;;;2.92;0.62;;;;;;;23.22;46.21;99425.78;4433806;32;33361;-80
2023/10/29 11:40:25;;;;;;;;;;;;;;;23.49;46.76;99421.03;4424362;32;33712;-82
2023/10/29 11:42:53;;;;;;;;;;;;;;;23.53;46.69;99412.16;4421886;32;34930;-81
2023/10/29 11:45:30;;;;;;;;;;;;;;;23.85;45.68;99413.47;4421954;32;34639;-80
2023/10/29 11:48:06;;;;;;;;;;;;;;;24.11;46.12;99405.97;4422112;32;33646;-80
2023/10/29 11:50:33;;;;;;;;;;;;;;;24.16;44.46;99407.69;4424919;32;34922;-80
2023/10/29 11:53:01;;;;;;;;;;;;;;;23.89;45.29;99401.94;4432485;32;33652;-80
2023/10/29 11:55:28;;;;;;;;;;;;;;;23.99;45.75;99405.31;4436730;32;33629;-79
2023/10/29 11:57:56;;;;;;;;;;;;;;;24.01;45.99;99398.22;4416912;32;33021;-79
2023/10/29 12:00:23;;;;;;;;;;;;;;;24.33;45.60;99390.59;4401979;32;33548;-76
2023/10/29 12:02:50;;;;;;;;;;;;;;;24.72;44.60;99390.81;4416202;32;34215;-78
2023/10/29 12:05:18;;;;;;;;;;;;;;;24.83;44.96;99393.22;4415804;32;33890;-80
2023/10/29 12:07:45;;;;;;;;;;;;;;;24.62;44.10;99391.00;4429678;32;33679;-78
2023/10/29 12:10:13;;;;;;;;;;;;;;;24.38;44.63;99393.19;4414716;32;33790;-79
2023/10/29 12:12:41;;;;;;;;;;;;;;;23.87;45.08;99390.50;4412264;32;33819;-80
2023/10/29 12:15:12;;;;;;;;;;;;;;;23.57;46.15;99386.56;4417741;32;34049;-79
2023/10/29 12:17:42;;;;;;;;;;;;;;;23.98;46.19;99385.91;4414560;32;32173;-78
2023/10/29 12:20:19;;;;;;;;;;;;;;;23.92;44.66;99391.31;4414333;32;33411;-80
2023/10/29 12:22:51;;;;;;;;;;;;;;;24.05;44.58;99379.62;4399268;32;35173;-80
2023/10/29 12:25:21;;;;;;;;;;;;;;;23.88;44.93;99376.41;4408313;32;34039;-80
2023/10/29 12:27:49;;;;;;;;;;;;;;;23.56;45.88;99375.06;4418883;32;33962;-79
2023/10/29 12:30:35;;;;;;;;;;;;;;;23.66;45.77;99382.00;4409384;32;34744;-80
2023/10/29 12:33:19;;;;;;;;;;;;;;;23.98;45.39;99377.97;4413390;32;33610;-79
2023/10/29 12:35:50;;;;;;;;;;;;;;;24.20;44.29;99377.59;4406498;32;34415;-80
2023/10/29 12:38:18;;;;;;;;;;;;;;;24.06;44.82;99381.38;4414215;32;33609;-78
2023/10/29 12:41:00;;;;;;;;;;;;;;;23.55;45.20;99370.69;4420365;32;34090;-78
2023/10/29 12:43:35;;;;;;;;;;;;;;;23.49;46.05;99369.03;4408991;32;34122;-79
2023/10/29 12:46:07;;;;;;;;;;;;;;;23.40;46.93;99352.44;4414825;32;34303;-79
2023/10/29 12:48:36;;;;;;;;;;;;;;;23.41;47.02;99359.44;4398906;32;31515;-81
2023/10/29 12:51:03;;;;;;;;;;;;;;;23.60;46.34;99354.75;4400955;32;34671;-81